createdAt,value
2023-04-17T00:06:45.152Z,22.55
2023-04-17T00:09:12.882Z,22.42
2023-04-17T00:11:40.105Z,23.10
2023-04-17T00:14:07.089Z,21.80
2023-04-17T00:16:34.214Z,24.02
2023-04-17T00:19:01.334Z,23.70
2023-04-17T00:21:30.033Z,24.92
2023-04-17T00:23:57.268Z,24.27
2023-04-17T00:26:24.836Z,24.20
2023-04-17T00:28:52.287Z,25.10
2023-04-17T00:31:19.662Z,24.45
2023-04-17T00:33:46.852Z,25.13
2023-04-17T00:36:15.513Z,24.25
2023-04-17T00:38:42.944Z,24.48
2023-04-17T00:41:11.588Z,25.35
2023-04-17T00:43:39.944Z,24.35
2023-04-17T00:46:08.462Z,23.92
2023-04-17T00:48:37.405Z,25.05
2023-04-17T00:51:04.806Z,23.90
2023-04-17T00:53:32.858Z,24.88
2023-04-17T00:56:04.372Z,24.95
2023-04-17T00:58:31.754Z,25.25
2023-04-17T01:00:59.594Z,24.40
2023-04-17T01:03:29.764Z,24.88
2023-04-17T01:05:58.260Z,23.25
2023-04-17T01:08:25.278Z,24.50
2023-04-17T01:10:52.433Z,25.02
2023-04-17T01:13:19.963Z,25.35
2023-04-17T01:15:47.431Z,24.38
2023-04-17T01:18:15.074Z,23.30
2023-04-17T01:20:42.179Z,23.95
2023-04-17T01:23:09.570Z,24.38
2023-04-17T01:25:36.631Z,24.05
2023-04-17T01:28:03.790Z,24.35
2023-04-17T01:30:31.171Z,23.80
2023-04-17T01:33:04.086Z,25.23
2023-04-17T01:35:31.143Z,24.00
2023-04-17T01:37:58.631Z,23.27
2023-04-17T01:40:25.742Z,23.05
2023-04-17T01:42:52.777Z,24.42
2023-04-17T01:45:20.198Z,23.67
2023-04-17T01:47:47.604Z,24.27
2023-04-17T01:50:14.790Z,23.88
2023-04-17T01:52:42.277Z,23.60
2023-04-17T01:55:09.715Z,24.73
2023-04-17T01:57:36.965Z,23.83
2023-04-17T02:00:09.413Z,23.75
2023-04-17T02:02:39.870Z,23.83
2023-04-17T02:09:38.647Z,23.02
2023-04-17T02:12:07.896Z,24.17
2023-04-17T02:14:35.114Z,24.92
2023-04-17T02:17:02.534Z,24.02
2023-04-17T02:23:56.680Z,24.13
2023-04-17T02:26:23.798Z,24.38
2023-04-17T02:28:50.804Z,23.27
2023-04-17T02:31:18.091Z,23.33
2023-04-17T02:33:46.399Z,23.88
2023-04-17T02:36:13.387Z,23.10
2023-04-17T02:38:42.859Z,24.55
2023-04-17T02:41:10.336Z,23.95
2023-04-17T02:43:38.624Z,22.70
2023-04-17T02:46:05.759Z,23.75
2023-04-17T02:48:32.957Z,23.17
2023-04-17T02:50:59.956Z,23.88
2023-04-17T02:53:27.521Z,23.73
2023-04-17T02:55:54.588Z,24.52
2023-04-17T02:58:23.906Z,22.77
2023-04-17T03:00:51.283Z,23.63
2023-04-17T03:03:20.027Z,22.67
2023-04-17T03:05:47.092Z,23.00
2023-04-17T03:08:14.089Z,23.35
2023-04-17T03:10:49.995Z,23.48
2023-04-17T03:13:17.096Z,23.42
2023-04-17T03:15:44.088Z,23.48
2023-04-17T03:18:11.402Z,23.58
2023-04-17T03:25:01.561Z,24.02
2023-04-17T03:27:36.198Z,24.75
2023-04-17T03:30:03.834Z,24.77
2023-04-17T03:32:32.246Z,24.45
2023-04-17T03:34:59.391Z,24.15
2023-04-17T03:37:27.483Z,24.33
2023-04-17T03:39:55.790Z,24.75
2023-04-17T03:42:27.446Z,24.92
2023-04-17T03:44:55.629Z,24.45
2023-04-17T03:47:24.250Z,23.75
2023-04-17T03:49:51.400Z,24.55
2023-04-17T03:52:19.098Z,24.38
2023-04-17T03:54:50.987Z,24.50
2023-04-17T03:57:18.119Z,24.60
2023-04-17T03:59:45.323Z,24.70
2023-04-17T04:02:12.765Z,24.40
2023-04-17T04:04:41.069Z,23.70
2023-04-17T04:07:12.439Z,23.95
2023-04-17T04:09:39.764Z,24.35
2023-04-17T04:12:08.709Z,25.30
2023-04-17T04:14:41.883Z,24.70
2023-04-17T04:17:10.141Z,25.30
2023-04-17T04:19:37.667Z,25.15
2023-04-17T04:22:06.711Z,25.52
2023-04-17T04:24:42.760Z,25.13
2023-04-17T04:27:12.218Z,24.10
2023-04-17T04:29:39.702Z,25.83
2023-04-17T04:32:09.905Z,24.98
2023-04-17T04:34:44.960Z,24.88
2023-04-17T04:37:15.719Z,25.17
2023-04-17T04:39:47.362Z,24.52
2023-04-17T04:42:22.242Z,24.45
2023-04-17T04:45:12.083Z,25.48
2023-04-17T04:47:39.344Z,24.30
2023-04-17T04:50:07.034Z,25.13
2023-04-17T04:52:34.174Z,25.13
2023-04-17T04:55:06.567Z,24.27
2023-04-17T04:57:36.436Z,25.27
2023-04-17T05:00:06.649Z,25.40
2023-04-17T05:02:41.562Z,25.75
2023-04-17T05:05:11.140Z,25.90
2023-04-17T05:07:38.374Z,25.70
2023-04-17T05:10:08.518Z,26.77
2023-04-17T05:12:39.073Z,25.42
2023-04-17T05:15:08.691Z,26.15
2023-04-17T05:17:36.555Z,25.80
2023-04-17T05:20:07.459Z,26.10
2023-04-17T05:22:39.224Z,25.75
2023-04-17T05:25:10.584Z,26.42
2023-04-17T05:27:37.872Z,26.25
2023-04-17T05:30:06.493Z,26.95
2023-04-17T05:32:35.180Z,26.90
2023-04-17T05:35:25.530Z,25.45
2023-04-17T05:37:55.905Z,25.63
2023-04-17T05:40:23.308Z,25.80
2023-04-17T05:42:50.446Z,25.80
2023-04-17T05:45:18.465Z,26.67
2023-04-17T05:47:46.014Z,25.65
2023-04-17T05:50:14.965Z,26.45
2023-04-17T05:52:42.323Z,25.15
2023-04-17T05:55:11.576Z,26.85
2023-04-17T05:57:39.378Z,25.00
2023-04-17T06:00:13.404Z,25.50
2023-04-17T06:02:50.104Z,26.23
2023-04-17T06:05:26.340Z,26.70
2023-04-17T06:07:53.627Z,24.88
2023-04-17T06:10:22.508Z,25.98
2023-04-17T06:12:50.228Z,25.88
2023-04-17T06:15:17.494Z,26.30
2023-04-17T06:17:44.711Z,24.70
2023-04-17T06:20:12.096Z,24.77
2023-04-17T06:22:40.368Z,26.08
2023-04-17T06:25:08.249Z,25.65
2023-04-17T06:27:37.205Z,25.23
2023-04-17T06:30:05.829Z,24.65
2023-04-17T06:32:43.775Z,24.98
2023-04-17T06:35:11.562Z,25.33
2023-04-17T06:37:44.441Z,24.77
2023-04-17T06:40:12.565Z,24.30
2023-04-17T06:42:40.644Z,24.40
2023-04-17T06:45:12.492Z,24.85
2023-04-17T06:47:39.679Z,24.58
2023-04-17T06:50:08.494Z,25.63
2023-04-17T06:52:35.559Z,25.38
2023-04-17T06:55:02.606Z,25.30
2023-04-17T06:57:29.696Z,27.00
2023-04-17T06:59:56.594Z,25.75
2023-04-17T07:02:23.772Z,27.08
2023-04-17T07:04:51.280Z,26.63
2023-04-17T07:11:44.987Z,26.85
2023-04-17T07:14:12.922Z,27.95
2023-04-17T07:16:40.383Z,27.80
2023-04-17T07:19:07.378Z,28.50
2023-04-17T07:21:34.910Z,27.70
2023-04-17T07:24:01.982Z,28.73
2023-04-17T07:26:29.046Z,29.13
2023-04-17T07:28:56.340Z,28.95
2023-04-17T07:31:23.721Z,29.45
2023-04-17T07:33:50.676Z,28.23
2023-04-17T07:36:17.816Z,27.60
2023-04-17T07:38:44.857Z,27.20
2023-04-17T07:41:12.660Z,26.38
2023-04-17T07:43:39.718Z,26.45
2023-04-17T07:46:06.821Z,26.73
2023-04-17T07:48:33.853Z,26.45
2023-04-17T07:51:03.616Z,25.70
2023-04-17T07:53:31.041Z,27.02
2023-04-17T07:55:58.613Z,25.60
2023-04-17T07:58:27.248Z,26.05
2023-04-17T08:00:54.492Z,25.20
2023-04-17T08:03:22.455Z,25.30
2023-04-17T08:05:51.863Z,25.33
2023-04-17T08:08:20.170Z,24.90
2023-04-17T08:10:47.144Z,25.40
2023-04-17T08:13:14.134Z,24.50
2023-04-17T08:15:41.373Z,25.20
2023-04-17T08:18:09.829Z,25.33
2023-04-17T08:20:37.209Z,24.48
2023-04-17T08:27:43.177Z,24.30
2023-04-17T08:30:14.218Z,23.58
2023-04-17T08:32:43.901Z,23.77
2023-04-17T08:35:12.150Z,23.90
2023-04-17T08:37:51.674Z,23.63
2023-04-17T08:40:36.728Z,23.25
2023-04-17T08:43:20.130Z,23.08
2023-04-17T08:45:54.175Z,24.20
2023-04-17T08:48:25.082Z,24.45
2023-04-17T08:50:53.672Z,25.65
2023-04-17T08:53:21.417Z,25.60
2023-04-17T08:55:48.822Z,25.83
2023-04-17T08:58:16.561Z,25.33
2023-04-17T09:00:44.957Z,27.85
2023-04-17T09:03:13.929Z,27.35
2023-04-17T09:05:45.860Z,28.75
2023-04-17T09:08:17.793Z,28.75
2023-04-17T09:10:49.713Z,28.83
2023-04-17T09:13:19.944Z,29.15
2023-04-17T09:16:08.488Z,29.83
2023-04-17T09:18:36.842Z,29.30
2023-04-17T09:21:05.355Z,29.73
2023-04-17T09:23:49.872Z,29.65
2023-04-17T09:26:27.646Z,30.15
2023-04-17T09:29:11.246Z,31.42
2023-04-17T09:31:40.309Z,31.00
2023-04-17T09:34:09.302Z,32.13
2023-04-17T09:41:02.998Z,31.13
2023-04-17T09:43:43.404Z,33.28
2023-04-17T09:46:10.736Z,32.42
2023-04-17T09:48:37.810Z,32.88
2023-04-17T09:51:05.022Z,32.08
2023-04-17T09:57:56.561Z,31.50
2023-04-17T10:00:27.244Z,31.40
2023-04-17T10:02:56.305Z,32.75
2023-04-17T10:05:29.204Z,31.83
2023-04-17T10:07:56.844Z,32.33
2023-04-17T10:10:33.877Z,32.67
2023-04-17T10:13:05.538Z,33.10
2023-04-17T10:15:33.936Z,33.28
2023-04-17T10:18:21.489Z,33.53
2023-04-17T10:20:49.624Z,34.10
2023-04-17T10:23:35.197Z,32.28
2023-04-17T10:26:30.019Z,30.98
2023-04-17T10:28:57.978Z,31.40
2023-04-17T10:32:03.526Z,29.35
2023-04-17T10:34:37.871Z,29.05
2023-04-17T10:41:27.378Z,24.20
2023-04-17T10:43:57.717Z,22.70
2023-04-17T10:46:26.591Z,21.75
2023-04-17T10:48:53.980Z,21.13
2023-04-17T10:51:27.851Z,22.42
2023-04-17T10:54:05.624Z,23.40
2023-04-17T10:56:46.433Z,23.83
2023-04-17T10:59:14.820Z,21.15
2023-04-17T11:01:48.156Z,17.02
2023-04-17T11:04:25.469Z,17.58
2023-04-17T11:06:54.166Z,19.25
2023-04-17T11:09:23.181Z,16.90
2023-04-17T11:11:50.487Z,16.70
2023-04-17T11:14:19.713Z,15.70
2023-04-17T11:16:48.626Z,15.48
2023-04-17T11:19:23.326Z,15.73
2023-04-17T11:21:57.424Z,16.63
2023-04-17T11:24:26.851Z,16.25
2023-04-17T11:26:54.535Z,14.80
2023-04-17T11:29:22.833Z,13.48
2023-04-17T11:31:52.229Z,11.80
2023-04-17T11:34:19.838Z,11.80
2023-04-17T11:36:57.742Z,12.43
2023-04-17T11:39:33.367Z,12.45
2023-04-17T11:42:02.666Z,13.25
2023-04-17T11:44:29.979Z,13.27
2023-04-17T11:47:00.722Z,13.52
2023-04-17T11:49:29.752Z,13.73
2023-04-17T11:51:59.954Z,11.95
2023-04-17T11:54:39.912Z,12.23
2023-04-17T11:57:12.622Z,12.90
2023-04-17T11:59:45.663Z,12.15
2023-04-17T12:02:12.959Z,12.93
2023-04-17T12:04:40.615Z,12.05
2023-04-17T12:07:08.664Z,12.00
2023-04-17T12:09:36.506Z,14.00
2023-04-17T12:12:07.597Z,12.88
2023-04-17T12:14:35.271Z,11.40
2023-04-17T12:17:02.162Z,11.85
2023-04-17T12:19:29.934Z,12.38
2023-04-17T12:21:57.516Z,11.88
2023-04-17T12:24:25.359Z,13.57
2023-04-17T12:26:53.555Z,15.38
2023-04-17T12:29:29.508Z,14.55
2023-04-17T12:32:08.029Z,13.55
2023-04-17T12:34:35.067Z,13.77
2023-04-17T12:37:02.077Z,13.45
2023-04-17T12:39:29.061Z,13.23
2023-04-17T12:41:56.424Z,13.32
2023-04-17T12:44:23.647Z,12.35
2023-04-17T12:46:50.738Z,13.70
2023-04-17T12:49:17.911Z,11.43
2023-04-17T12:51:45.149Z,12.63
2023-04-17T12:54:12.327Z,12.50
2023-04-17T12:56:39.523Z,13.25
2023-04-17T12:59:06.664Z,13.05
2023-04-17T13:01:33.821Z,12.77
2023-04-17T13:04:01.233Z,13.68
2023-04-17T13:06:28.515Z,14.23
2023-04-17T13:08:55.618Z,13.77
2023-04-17T13:11:22.719Z,14.20
2023-04-17T13:13:49.692Z,14.55
2023-04-17T13:16:16.821Z,14.25
2023-04-17T13:18:43.798Z,13.95
2023-04-17T13:21:10.756Z,15.18
2023-04-17T13:23:37.728Z,13.75
2023-04-17T13:26:05.002Z,14.23
2023-04-17T13:28:32.141Z,14.15
2023-04-17T13:30:59.279Z,13.25
2023-04-17T13:33:26.290Z,12.40
2023-04-17T13:35:54.047Z,12.63
2023-04-17T13:38:21.050Z,12.85
2023-04-17T13:45:24.328Z,12.75
2023-04-17T13:47:51.698Z,13.23
2023-04-17T13:50:18.802Z,13.40
2023-04-17T13:52:45.792Z,14.07
2023-04-17T13:55:14.775Z,14.85
2023-04-17T13:57:41.793Z,14.43
2023-04-17T14:00:10.765Z,13.73
2023-04-17T14:02:37.976Z,14.77
2023-04-17T14:05:05.974Z,12.43
2023-04-17T14:07:33.094Z,12.73
2023-04-17T14:10:00.328Z,12.50
2023-04-17T14:12:27.442Z,11.07
2023-04-17T14:14:55.173Z,11.35
2023-04-17T14:17:23.632Z,10.85
2023-04-17T14:19:50.640Z,11.43
2023-04-17T14:22:17.727Z,11.15
2023-04-17T14:24:44.651Z,11.82
2023-04-17T14:27:11.805Z,9.85
2023-04-17T14:29:38.969Z,10.35
2023-04-17T14:32:06.314Z,10.10
2023-04-17T14:34:33.387Z,8.50
2023-04-17T14:37:00.793Z,8.68
2023-04-17T14:39:30.143Z,8.18
2023-04-17T14:42:00.525Z,8.23
2023-04-17T14:44:29.204Z,8.48
2023-04-17T14:46:57.038Z,9.13
2023-04-17T14:49:24.351Z,9.48
2023-04-17T14:51:51.813Z,9.88
2023-04-17T14:54:19.581Z,9.23
2023-04-17T14:56:52.476Z,9.73
2023-04-17T14:59:20.792Z,10.13
2023-04-17T15:01:48.027Z,10.52
2023-04-17T15:04:15.655Z,10.40
2023-04-17T15:06:44.899Z,10.52
2023-04-17T15:13:41.951Z,12.77
2023-04-17T15:16:10.937Z,12.25
2023-04-17T15:18:42.777Z,13.10
2023-04-17T15:21:11.190Z,14.25
2023-04-17T15:23:41.497Z,14.00
2023-04-17T15:30:37.952Z,12.43
2023-04-17T15:33:09.242Z,11.20
2023-04-17T15:35:37.518Z,11.93
2023-04-17T15:38:08.131Z,12.68
2023-04-17T15:45:01.912Z,13.35
2023-04-17T15:47:28.977Z,11.10
2023-04-17T15:49:56.364Z,10.73
2023-04-17T15:52:26.372Z,11.77
2023-04-17T15:54:54.313Z,12.25
2023-04-17T15:57:26.808Z,11.07
2023-04-17T15:59:54.936Z,10.98
2023-04-17T16:02:22.088Z,10.30
2023-04-17T16:04:49.449Z,10.13
2023-04-17T16:07:16.653Z,10.50
2023-04-17T16:14:12.971Z,11.38
2023-04-17T16:16:41.145Z,10.82
2023-04-17T16:19:08.911Z,7.10
2023-04-17T16:21:40.557Z,7.53
2023-04-17T16:24:11.755Z,8.18
2023-04-17T16:31:07.302Z,6.90
2023-04-17T16:33:34.454Z,6.80
2023-04-17T16:36:02.159Z,6.23
2023-04-17T16:38:29.552Z,6.15
2023-04-17T16:40:59.250Z,5.90
2023-04-17T16:43:26.954Z,5.57
2023-04-17T16:45:54.022Z,5.03
2023-04-17T16:48:21.173Z,4.80
2023-04-17T16:50:48.462Z,5.72
2023-04-17T16:53:15.440Z,4.78
2023-04-17T16:55:42.600Z,5.25
2023-04-17T16:58:10.206Z,5.18
2023-04-17T17:00:38.015Z,5.93
2023-04-17T17:03:05.561Z,5.30
2023-04-17T17:05:32.837Z,5.00
2023-04-17T17:08:00.527Z,5.53
2023-04-17T17:10:27.975Z,5.28
2023-04-17T17:12:59.049Z,6.70
2023-04-17T17:15:27.539Z,5.10
2023-04-17T17:17:54.634Z,4.72
2023-04-17T17:20:22.012Z,5.38
2023-04-17T17:22:49.905Z,5.95
2023-04-17T17:25:18.537Z,5.68
2023-04-17T17:32:18.339Z,5.70
2023-04-17T17:34:46.245Z,5.90
2023-04-17T17:37:13.493Z,6.47
2023-04-17T17:39:40.591Z,6.93
2023-04-17T17:42:10.664Z,5.90
2023-04-17T17:44:41.808Z,5.35
2023-04-17T17:47:14.556Z,6.05
2023-04-17T17:49:43.118Z,5.50
2023-04-17T17:52:14.164Z,5.97
2023-04-17T17:54:43.234Z,5.75
2023-04-17T17:57:10.610Z,6.07
2023-04-17T17:59:43.456Z,5.68
2023-04-17T18:02:15.005Z,6.28
2023-04-17T18:04:43.493Z,5.40
2023-04-17T18:07:10.664Z,6.20
2023-04-17T18:09:41.480Z,6.70
2023-04-17T18:12:09.785Z,6.18
2023-04-17T18:14:40.535Z,5.47
2023-04-17T18:17:12.989Z,5.78
2023-04-17T18:19:42.203Z,5.50
2023-04-17T18:22:10.120Z,5.47
2023-04-17T18:24:37.213Z,6.25
2023-04-17T18:27:05.595Z,5.85
2023-04-17T18:29:40.383Z,6.47
2023-04-17T18:32:13.608Z,6.72
2023-04-17T18:34:46.751Z,6.60
2023-04-17T18:37:18.344Z,7.18
2023-04-17T18:39:48.735Z,6.80
2023-04-17T18:42:17.535Z,6.88
2023-04-17T18:44:44.904Z,6.80
2023-04-17T18:47:12.048Z,7.65
2023-04-17T18:49:45.141Z,6.35
2023-04-17T18:52:18.899Z,6.47
2023-04-17T18:54:53.851Z,6.60
2023-04-17T18:57:21.751Z,7.05
2023-04-17T18:59:48.737Z,7.20
2023-04-17T19:02:15.810Z,7.57
2023-04-17T19:04:43.045Z,7.47
2023-04-17T19:07:10.088Z,8.60
2023-04-17T19:09:37.179Z,8.93
2023-04-17T19:12:04.429Z,15.38
2023-04-17T19:14:32.693Z,11.05
2023-04-17T19:16:59.895Z,9.77
2023-04-17T19:19:27.040Z,9.52
2023-04-17T19:21:54.080Z,9.50
2023-04-17T19:24:21.410Z,10.52
2023-04-17T19:26:48.825Z,9.85
2023-04-17T19:29:20.250Z,9.98
2023-04-17T19:31:48.766Z,9.93
2023-04-17T19:34:16.629Z,10.57
2023-04-17T19:36:44.694Z,10.68
2023-04-17T19:39:13.560Z,9.95
2023-04-17T19:41:44.077Z,10.15
2023-04-17T19:44:14.744Z,10.60
2023-04-17T19:46:45.785Z,10.50
2023-04-17T19:49:18.921Z,11.25
2023-04-17T19:51:51.659Z,11.00
2023-04-17T19:54:20.323Z,10.77
2023-04-17T19:56:53.398Z,11.10
2023-04-17T19:59:24.924Z,12.05
2023-04-17T20:01:56.480Z,12.00
2023-04-17T20:04:29.116Z,11.35
2023-04-17T20:07:00.647Z,11.80
2023-04-17T20:09:28.815Z,11.32
2023-04-17T20:11:56.116Z,11.63
2023-04-17T20:14:27.196Z,11.45
2023-04-17T20:17:02.724Z,12.35
2023-04-17T20:19:32.568Z,12.55
2023-04-17T20:21:59.781Z,12.27
2023-04-17T20:24:28.797Z,12.02
2023-04-17T20:27:02.183Z,12.20
2023-04-17T20:31:27.592Z,12.90
2023-04-17T20:33:55.894Z,19.35
2023-04-17T20:36:23.133Z,15.82
2023-04-17T20:38:54.995Z,14.07
2023-04-17T20:41:23.596Z,13.52
2023-04-17T20:48:35.662Z,13.35
2023-04-17T20:51:11.057Z,14.65
2023-04-17T20:53:42.964Z,15.10
2023-04-17T20:56:10.351Z,16.20
2023-04-17T21:03:09.539Z,13.93
2023-04-17T21:05:37.914Z,14.98
2023-04-17T21:08:05.029Z,15.27
2023-04-17T21:10:32.029Z,16.17
2023-04-17T21:17:39.754Z,14.98
2023-04-17T21:20:07.748Z,15.82
2023-04-17T21:22:36.992Z,15.65
2023-04-17T21:25:04.541Z,17.05
2023-04-17T21:27:31.747Z,15.30
2023-04-17T21:29:58.787Z,15.98
2023-04-17T21:32:25.820Z,15.90
2023-04-17T21:34:53.117Z,16.52
2023-04-17T21:37:20.304Z,15.57
2023-04-17T21:39:48.472Z,15.90
2023-04-17T21:42:16.975Z,15.98
2023-04-17T21:44:44.215Z,16.70
2023-04-17T21:47:11.618Z,17.00
2023-04-17T21:49:38.680Z,16.45
2023-04-17T21:52:05.805Z,17.05
2023-04-17T21:54:33.783Z,16.35
2023-04-17T21:57:02.244Z,15.30
2023-04-17T21:59:29.884Z,16.20
2023-04-17T22:01:57.132Z,15.55
2023-04-17T22:04:24.257Z,16.08
2023-04-17T22:06:52.251Z,14.55
2023-04-17T22:09:20.127Z,14.80
2023-04-17T22:11:49.452Z,15.52
2023-04-17T22:14:17.326Z,14.20
2023-04-17T22:16:44.746Z,14.35
2023-04-17T22:19:11.837Z,14.10
2023-04-17T22:21:38.830Z,14.45
2023-04-17T22:24:06.222Z,13.80
2023-04-17T22:26:33.267Z,14.23
2023-04-17T22:29:00.389Z,13.90
2023-04-17T22:31:27.687Z,13.25
2023-04-17T22:33:54.907Z,12.95
2023-04-17T22:36:22.053Z,14.05
2023-04-17T22:38:49.200Z,13.80
2023-04-17T22:45:16.207Z,13.55
2023-04-17T22:47:43.398Z,13.98
2023-04-17T22:50:10.938Z,14.38
2023-04-17T22:52:38.034Z,14.75
2023-04-17T22:55:06.452Z,14.43
2023-04-17T22:57:33.806Z,14.05
2023-04-17T23:00:00.791Z,13.70
2023-04-17T23:02:27.923Z,15.20
2023-04-17T23:04:55.160Z,13.68
2023-04-17T23:07:22.492Z,14.48
2023-04-17T23:10:17.982Z,16.30
2023-04-17T23:13:05.044Z,15.85
2023-04-17T23:15:33.778Z,18.15
2023-04-17T23:18:00.930Z,17.77
2023-04-17T23:20:28.552Z,18.15
2023-04-17T23:22:55.582Z,18.73
2023-04-17T23:25:22.739Z,18.85
2023-04-17T23:27:49.844Z,19.67
2023-04-17T23:30:17.008Z,20.17
2023-04-17T23:32:44.070Z,20.40
2023-04-17T23:35:11.191Z,19.77
2023-04-17T23:37:38.300Z,19.90
2023-04-17T23:40:07.695Z,20.05
2023-04-17T23:42:34.930Z,20.25
2023-04-17T23:45:02.047Z,22.40
2023-04-17T23:47:29.108Z,21.98
2023-04-17T23:49:56.244Z,21.50
2023-04-17T23:52:23.292Z,21.75
2023-04-17T23:54:50.588Z,22.15
2023-04-17T23:57:17.993Z,22.83
2023-04-17T23:59:45.252Z,23.42
